Avon Lake, Ohio
Current Conditions -  °F | °C
As of 2:51 PM on Wednesday 28 Jan 2015 (Local Time) from KCLE Reporting Station
Scattered Clouds Scattered Clouds  
Wind Chill: 19°   Ceiling: Unl
Heat Index: 26°   Visibility: 10mi
Dew Point: 10°   Wind: 6mph
Humidity: 51%   Direction: 240°WSW
Pressure: 30.33"   Gusts: NA
Location:  41.51°N, 82.02°W
Report Text: KCLE 281951Z 24005KT 10SM SCT250 M03/M12 A3033 RMK AO2 SLP285 T10331122
Loading
Personal Weather Stations






























Interactive Weather Map New forecast layout! Learn more

10-Day Weather Forecast

Advertisements
Track Severe Weather on mobile